sensor_id;sensor_type;location;lat;lon;timestamp;P1;durP1;ratioP1;P2;durP2;ratioP2
5137;SDS011;53959;53.626;11.410;2022-12-11T00:01:26;17.00;;;7.80;;
5137;SDS011;53959;53.626;11.410;2022-12-11T00:03:52;18.60;;;8.07;;
5137;SDS011;53959;53.626;11.410;2022-12-11T00:06:19;18.90;;;8.10;;
5137;SDS011;53959;53.626;11.410;2022-12-11T00:08:46;14.27;;;7.40;;
5137;SDS011;53959;53.626;11.410;2022-12-11T00:11:14;17.53;;;9.13;;
5137;SDS011;53959;53.626;11.410;2022-12-11T00:13:41;15.87;;;8.53;;
5137;SDS011;53959;53.626;11.410;2022-12-11T00:16:06;16.27;;;8.10;;
5137;SDS011;53959;53.626;11.410;2022-12-11T00:18:32;18.40;;;7.37;;
5137;SDS011;53959;53.626;11.410;2022-12-11T00:20:59;17.07;;;9.07;;
5137;SDS011;53959;53.626;11.410;2022-12-11T00:23:25;20.70;;;8.10;;
5137;SDS011;53959;53.626;11.410;2022-12-11T00:25:51;21.30;;;9.17;;
5137;SDS011;53959;53.626;11.410;2022-12-11T00:28:17;18.80;;;8.73;;
5137;SDS011;53959;53.626;11.410;2022-12-11T00:30:43;15.37;;;8.03;;
5137;SDS011;53959;53.626;11.410;2022-12-11T00:33:09;14.87;;;8.00;;
5137;SDS011;53959;53.626;11.410;2022-12-11T00:35:39;15.30;;;7.57;;
5137;SDS011;53959;53.626;11.410;2022-12-11T00:38:05;17.70;;;8.90;;
5137;SDS011;53959;53.626;11.410;2022-12-11T00:40:35;16.97;;;8.20;;
5137;SDS011;53959;53.626;11.410;2022-12-11T00:43:01;15.47;;;7.40;;
5137;SDS011;53959;53.626;11.410;2022-12-11T00:45:27;18.23;;;8.50;;
5137;SDS011;53959;53.626;11.410;2022-12-11T00:47:52;20.00;;;8.80;;
5137;SDS011;53959;53.626;11.410;2022-12-11T00:50:18;17.23;;;7.83;;
5137;SDS011;53959;53.626;11.410;2022-12-11T00:52:43;19.97;;;8.93;;
5137;SDS011;53959;53.626;11.410;2022-12-11T00:55:09;20.10;;;8.40;;
5137;SDS011;53959;53.626;11.410;2022-12-11T00:57:35;22.60;;;10.03;;
5137;SDS011;53959;53.626;11.410;2022-12-11T01:00:01;15.40;;;8.67;;
5137;SDS011;53959;53.626;11.410;2022-12-11T01:02:28;19.67;;;8.83;;
5137;SDS011;53959;53.626;11.410;2022-12-11T01:04:53;14.90;;;7.70;;
5137;SDS011;53959;53.626;11.410;2022-12-11T01:07:19;17.40;;;7.50;;
5137;SDS011;53959;53.626;11.410;2022-12-11T01:09:44;18.93;;;7.93;;
5137;SDS011;53959;53.626;11.410;2022-12-11T01:12:28;19.00;;;8.10;;
5137;SDS011;53959;53.626;11.410;2022-12-11T01:14:54;22.83;;;9.47;;
5137;SDS011;53959;53.626;11.410;2022-12-11T01:17:19;17.57;;;9.03;;
5137;SDS011;53959;53.626;11.410;2022-12-11T01:19:45;15.10;;;8.03;;
5137;SDS011;53959;53.626;11.410;2022-12-11T01:22:11;16.60;;;8.77;;
5137;SDS011;53959;53.626;11.410;2022-12-11T01:24:37;21.03;;;9.07;;
5137;SDS011;53959;53.626;11.410;2022-12-11T01:27:02;15.50;;;8.00;;
5137;SDS011;53959;53.626;11.410;2022-12-11T01:29:28;17.57;;;8.30;;
5137;SDS011;53959;53.626;11.410;2022-12-11T01:31:54;20.13;;;9.00;;
5137;SDS011;53959;53.626;11.410;2022-12-11T01:34:20;21.83;;;8.67;;
5137;SDS011;53959;53.626;11.410;2022-12-11T01:36:45;17.90;;;8.87;;
5137;SDS011;53959;53.626;11.410;2022-12-11T01:39:11;22.13;;;7.80;;
5137;SDS011;53959;53.626;11.410;2022-12-11T01:41:36;23.63;;;8.67;;
5137;SDS011;53959;53.626;11.410;2022-12-11T01:46:33;17.90;;;9.27;;
5137;SDS011;53959;53.626;11.410;2022-12-11T01:49:02;20.40;;;8.97;;
5137;SDS011;53959;53.626;11.410;2022-12-11T01:51:30;21.80;;;8.17;;
5137;SDS011;53959;53.626;11.410;2022-12-11T01:54:01;22.43;;;9.80;;
5137;SDS011;53959;53.626;11.410;2022-12-11T01:56:31;28.80;;;9.47;;
5137;SDS011;53959;53.626;11.410;2022-12-11T01:59:00;19.90;;;9.30;;
5137;SDS011;53959;53.626;11.410;2022-12-11T02:01:47;23.03;;;9.90;;
5137;SDS011;53959;53.626;11.410;2022-12-11T02:04:18;18.70;;;9.00;;
5137;SDS011;53959;53.626;11.410;2022-12-11T02:06:46;23.50;;;9.57;;
5137;SDS011;53959;53.626;11.410;2022-12-11T02:09:16;21.67;;;9.00;;
5137;SDS011;53959;53.626;11.410;2022-12-11T02:11:54;21.30;;;8.60;;
5137;SDS011;53959;53.626;11.410;2022-12-11T02:14:37;23.57;;;9.50;;
5137;SDS011;53959;53.626;11.410;2022-12-11T02:17:28;28.67;;;11.20;;
5137;SDS011;53959;53.626;11.410;2022-12-11T02:20:22;24.73;;;9.97;;
5137;SDS011;53959;53.626;11.410;2022-12-11T02:25:36;22.13;;;10.87;;
5137;SDS011;53959;53.626;11.410;2022-12-11T02:30:50;22.90;;;10.47;;
5137;SDS011;53959;53.626;11.410;2022-12-11T02:36:18;23.53;;;11.50;;
5137;SDS011;53959;53.626;11.410;2022-12-11T02:38:48;25.77;;;11.63;;
5137;SDS011;53959;53.626;11.410;2022-12-11T02:41:16;21.80;;;10.27;;
5137;SDS011;53959;53.626;11.410;2022-12-11T02:43:44;29.83;;;11.80;;
5137;SDS011;53959;53.626;11.410;2022-12-11T02:46:11;25.40;;;11.73;;
5137;SDS011;53959;53.626;11.410;2022-12-11T02:48:38;24.37;;;12.10;;
5137;SDS011;53959;53.626;11.410;2022-12-11T02:51:05;24.00;;;11.60;;
5137;SDS011;53959;53.626;11.410;2022-12-11T02:53:34;21.03;;;10.90;;
5137;SDS011;53959;53.626;11.410;2022-12-11T02:56:07;19.20;;;10.77;;
5137;SDS011;53959;53.626;11.410;2022-12-11T02:58:46;23.60;;;11.33;;
5137;SDS011;53959;53.626;11.410;2022-12-11T03:01:13;23.73;;;10.80;;
5137;SDS011;53959;53.626;11.410;2022-12-11T03:03:39;24.03;;;11.10;;
5137;SDS011;53959;53.626;11.410;2022-12-11T03:06:05;23.30;;;10.23;;
5137;SDS011;53959;53.626;11.410;2022-12-11T03:08:31;19.87;;;10.13;;
5137;SDS011;53959;53.626;11.410;2022-12-11T03:10:56;20.70;;;10.10;;
5137;SDS011;53959;53.626;11.410;2022-12-11T03:13:22;25.03;;;10.67;;
5137;SDS011;53959;53.626;11.410;2022-12-11T03:23:51;24.50;;;11.40;;
5137;SDS011;53959;53.626;11.410;2022-12-11T03:26:22;24.90;;;11.50;;
5137;SDS011;53959;53.626;11.410;2022-12-11T03:31:29;20.40;;;9.67;;
5137;SDS011;53959;53.626;11.410;2022-12-11T03:34:08;18.97;;;10.27;;
5137;SDS011;53959;53.626;11.410;2022-12-11T03:36:43;19.40;;;9.30;;
5137;SDS011;53959;53.626;11.410;2022-12-11T03:39:12;24.07;;;9.63;;
5137;SDS011;53959;53.626;11.410;2022-12-11T03:41:42;21.83;;;10.73;;
5137;SDS011;53959;53.626;11.410;2022-12-11T03:44:10;18.10;;;8.93;;
5137;SDS011;53959;53.626;11.410;2022-12-11T03:46:37;18.80;;;9.20;;
5137;SDS011;53959;53.626;11.410;2022-12-11T03:49:06;17.60;;;9.10;;
5137;SDS011;53959;53.626;11.410;2022-12-11T03:51:37;19.50;;;8.80;;
5137;SDS011;53959;53.626;11.410;2022-12-11T03:54:03;19.60;;;9.60;;
5137;SDS011;53959;53.626;11.410;2022-12-11T03:56:30;24.07;;;8.87;;
5137;SDS011;53959;53.626;11.410;2022-12-11T03:58:59;21.93;;;9.47;;
5137;SDS011;53959;53.626;11.410;2022-12-11T04:01:25;17.60;;;8.10;;
5137;SDS011;53959;53.626;11.410;2022-12-11T04:03:50;19.90;;;8.87;;
5137;SDS011;53959;53.626;11.410;2022-12-11T04:06:16;15.37;;;8.33;;
5137;SDS011;53959;53.626;11.410;2022-12-11T04:08:41;16.33;;;8.10;;
5137;SDS011;53959;53.626;11.410;2022-12-11T04:11:07;22.80;;;9.37;;
5137;SDS011;53959;53.626;11.410;2022-12-11T04:13:52;20.67;;;8.53;;
5137;SDS011;53959;53.626;11.410;2022-12-11T04:16:36;15.40;;;8.20;;
5137;SDS011;53959;53.626;11.410;2022-12-11T04:19:02;18.60;;;8.83;;
5137;SDS011;53959;53.626;11.410;2022-12-11T04:21:47;21.47;;;8.63;;
5137;SDS011;53959;53.626;11.410;2022-12-11T04:24:31;18.30;;;8.10;;
5137;SDS011;53959;53.626;11.410;2022-12-11T04:26:57;18.00;;;8.70;;
5137;SDS011;53959;53.626;11.410;2022-12-11T04:29:23;15.30;;;7.70;;
5137;SDS011;53959;53.626;11.410;2022-12-11T04:31:48;16.50;;;8.90;;
5137;SDS011;53959;53.626;11.410;2022-12-11T04:34:14;18.43;;;8.80;;
5137;SDS011;53959;53.626;11.410;2022-12-11T04:36:40;17.57;;;7.93;;
5137;SDS011;53959;53.626;11.410;2022-12-11T04:39:06;16.20;;;7.37;;
5137;SDS011;53959;53.626;11.410;2022-12-11T04:41:32;18.13;;;8.03;;
5137;SDS011;53959;53.626;11.410;2022-12-11T04:43:58;16.87;;;8.87;;
5137;SDS011;53959;53.626;11.410;2022-12-11T04:46:23;14.13;;;8.30;;
5137;SDS011;53959;53.626;11.410;2022-12-11T04:48:49;17.67;;;8.20;;
5137;SDS011;53959;53.626;11.410;2022-12-11T04:51:16;18.47;;;7.87;;
5137;SDS011;53959;53.626;11.410;2022-12-11T04:53:42;16.03;;;8.80;;
5137;SDS011;53959;53.626;11.410;2022-12-11T04:56:09;16.87;;;8.17;;
5137;SDS011;53959;53.626;11.410;2022-12-11T04:58:36;17.70;;;7.97;;
5137;SDS011;53959;53.626;11.410;2022-12-11T05:01:06;18.43;;;7.40;;
5137;SDS011;53959;53.626;11.410;2022-12-11T05:03:39;15.77;;;7.40;;
5137;SDS011;53959;53.626;11.410;2022-12-11T05:06:06;25.83;;;9.70;;
5137;SDS011;53959;53.626;11.410;2022-12-11T05:08:34;13.67;;;7.60;;
5137;SDS011;53959;53.626;11.410;2022-12-11T05:11:01;18.27;;;8.97;;
5137;SDS011;53959;53.626;11.410;2022-12-11T05:13:28;21.67;;;9.60;;
5137;SDS011;53959;53.626;11.410;2022-12-11T05:15:54;20.47;;;8.53;;
5137;SDS011;53959;53.626;11.410;2022-12-11T05:18:20;21.53;;;8.37;;
5137;SDS011;53959;53.626;11.410;2022-12-11T05:23:22;17.97;;;9.00;;
5137;SDS011;53959;53.626;11.410;2022-12-11T05:25:58;17.70;;;8.60;;
5137;SDS011;53959;53.626;11.410;2022-12-11T05:28:27;15.87;;;7.40;;
5137;SDS011;53959;53.626;11.410;2022-12-11T05:31:04;18.67;;;7.23;;
5137;SDS011;53959;53.626;11.410;2022-12-11T05:33:33;16.70;;;7.73;;
5137;SDS011;53959;53.626;11.410;2022-12-11T05:35:59;17.50;;;8.03;;
5137;SDS011;53959;53.626;11.410;2022-12-11T05:38:25;21.93;;;8.93;;
5137;SDS011;53959;53.626;11.410;2022-12-11T05:41:04;16.83;;;8.37;;
5137;SDS011;53959;53.626;11.410;2022-12-11T05:43:31;19.57;;;8.00;;
5137;SDS011;53959;53.626;11.410;2022-12-11T05:46:12;22.17;;;9.40;;
5137;SDS011;53959;53.626;11.410;2022-12-11T05:48:40;23.67;;;8.00;;
5137;SDS011;53959;53.626;11.410;2022-12-11T05:51:07;24.43;;;9.23;;
5137;SDS011;53959;53.626;11.410;2022-12-11T05:53:37;17.40;;;7.57;;
5137;SDS011;53959;53.626;11.410;2022-12-11T05:56:04;20.33;;;8.30;;
5137;SDS011;53959;53.626;11.410;2022-12-11T05:58:32;15.80;;;7.40;;
5137;SDS011;53959;53.626;11.410;2022-12-11T06:00:58;17.60;;;9.10;;
5137;SDS011;53959;53.626;11.410;2022-12-11T06:03:24;21.70;;;9.07;;
5137;SDS011;53959;53.626;11.410;2022-12-11T06:05:50;16.47;;;8.50;;
5137;SDS011;53959;53.626;11.410;2022-12-11T06:08:15;17.60;;;9.23;;
5137;SDS011;53959;53.626;11.410;2022-12-11T06:10:48;15.40;;;8.97;;
5137;SDS011;53959;53.626;11.410;2022-12-11T06:13:14;20.77;;;8.77;;
5137;SDS011;53959;53.626;11.410;2022-12-11T06:15:40;16.50;;;8.37;;
5137;SDS011;53959;53.626;11.410;2022-12-11T06:18:06;18.10;;;8.40;;
5137;SDS011;53959;53.626;11.410;2022-12-11T06:20:32;22.10;;;8.73;;
5137;SDS011;53959;53.626;11.410;2022-12-11T06:22:58;18.50;;;7.90;;
5137;SDS011;53959;53.626;11.410;2022-12-11T06:25:24;19.00;;;8.57;;
5137;SDS011;53959;53.626;11.410;2022-12-11T06:27:50;17.57;;;8.20;;
5137;SDS011;53959;53.626;11.410;2022-12-11T06:30:16;26.67;;;9.27;;
5137;SDS011;53959;53.626;11.410;2022-12-11T06:32:42;19.23;;;8.70;;
5137;SDS011;53959;53.626;11.410;2022-12-11T06:35:08;17.47;;;8.33;;
5137;SDS011;53959;53.626;11.410;2022-12-11T06:37:35;19.90;;;8.33;;
5137;SDS011;53959;53.626;11.410;2022-12-11T06:40:01;18.33;;;8.53;;
5137;SDS011;53959;53.626;11.410;2022-12-11T06:42:28;15.20;;;7.83;;
5137;SDS011;53959;53.626;11.410;2022-12-11T06:44:54;18.00;;;8.60;;
5137;SDS011;53959;53.626;11.410;2022-12-11T06:47:21;22.47;;;9.50;;
5137;SDS011;53959;53.626;11.410;2022-12-11T06:49:47;17.43;;;8.50;;
5137;SDS011;53959;53.626;11.410;2022-12-11T06:52:12;17.23;;;8.50;;
5137;SDS011;53959;53.626;11.410;2022-12-11T06:54:38;17.40;;;7.97;;
5137;SDS011;53959;53.626;11.410;2022-12-11T06:57:03;17.30;;;8.17;;
5137;SDS011;53959;53.626;11.410;2022-12-11T06:59:29;26.43;;;9.47;;
5137;SDS011;53959;53.626;11.410;2022-12-11T07:01:55;18.30;;;9.33;;
5137;SDS011;53959;53.626;11.410;2022-12-11T07:04:20;18.83;;;8.30;;
5137;SDS011;53959;53.626;11.410;2022-12-11T07:06:48;17.57;;;8.80;;
5137;SDS011;53959;53.626;11.410;2022-12-11T07:09:14;15.43;;;8.17;;
5137;SDS011;53959;53.626;11.410;2022-12-11T07:11:39;17.07;;;8.13;;
5137;SDS011;53959;53.626;11.410;2022-12-11T07:14:05;18.10;;;8.73;;
5137;SDS011;53959;53.626;11.410;2022-12-11T07:16:30;20.30;;;9.10;;
5137;SDS011;53959;53.626;11.410;2022-12-11T07:18:56;17.87;;;7.93;;
5137;SDS011;53959;53.626;11.410;2022-12-11T07:21:21;21.67;;;9.40;;
5137;SDS011;53959;53.626;11.410;2022-12-11T07:23:47;15.47;;;8.77;;
5137;SDS011;53959;53.626;11.410;2022-12-11T07:26:14;17.03;;;8.80;;
5137;SDS011;53959;53.626;11.410;2022-12-11T07:28:41;17.47;;;8.80;;
5137;SDS011;53959;53.626;11.410;2022-12-11T07:31:08;22.00;;;9.03;;
5137;SDS011;53959;53.626;11.410;2022-12-11T07:33:36;19.10;;;9.00;;
5137;SDS011;53959;53.626;11.410;2022-12-11T07:36:03;19.60;;;8.80;;
5137;SDS011;53959;53.626;11.410;2022-12-11T07:38:29;18.67;;;8.53;;
5137;SDS011;53959;53.626;11.410;2022-12-11T07:40:55;19.33;;;8.83;;
5137;SDS011;53959;53.626;11.410;2022-12-11T07:43:24;24.27;;;7.77;;
5137;SDS011;53959;53.626;11.410;2022-12-11T07:45:50;22.23;;;9.30;;
5137;SDS011;53959;53.626;11.410;2022-12-11T07:48:15;22.23;;;9.40;;
5137;SDS011;53959;53.626;11.410;2022-12-11T07:50:41;21.63;;;10.07;;
5137;SDS011;53959;53.626;11.410;2022-12-11T07:53:06;17.60;;;8.53;;
5137;SDS011;53959;53.626;11.410;2022-12-11T07:55:32;17.83;;;8.23;;
5137;SDS011;53959;53.626;11.410;2022-12-11T07:57:57;19.47;;;9.67;;
5137;SDS011;53959;53.626;11.410;2022-12-11T08:00:23;19.87;;;9.60;;
5137;SDS011;53959;53.626;11.410;2022-12-11T08:02:48;18.63;;;9.47;;
5137;SDS011;53959;53.626;11.410;2022-12-11T08:05:14;18.60;;;9.27;;
5137;SDS011;53959;53.626;11.410;2022-12-11T08:07:39;16.67;;;9.20;;
5137;SDS011;53959;53.626;11.410;2022-12-11T08:10:05;19.83;;;8.77;;
5137;SDS011;53959;53.626;11.410;2022-12-11T08:12:31;18.23;;;8.83;;
5137;SDS011;53959;53.626;11.410;2022-12-11T08:14:56;16.40;;;8.27;;
5137;SDS011;53959;53.626;11.410;2022-12-11T08:17:22;19.77;;;9.43;;
5137;SDS011;53959;53.626;11.410;2022-12-11T08:19:47;18.87;;;9.83;;
5137;SDS011;53959;53.626;11.410;2022-12-11T08:22:13;19.83;;;9.33;;
5137;SDS011;53959;53.626;11.410;2022-12-11T08:24:38;17.80;;;8.70;;
5137;SDS011;53959;53.626;11.410;2022-12-11T08:27:04;20.57;;;9.57;;
5137;SDS011;53959;53.626;11.410;2022-12-11T08:29:30;17.73;;;8.87;;
5137;SDS011;53959;53.626;11.410;2022-12-11T08:31:56;13.63;;;7.63;;
5137;SDS011;53959;53.626;11.410;2022-12-11T08:34:21;19.47;;;10.40;;
5137;SDS011;53959;53.626;11.410;2022-12-11T08:36:47;25.20;;;12.37;;
5137;SDS011;53959;53.626;11.410;2022-12-11T08:39:12;19.50;;;9.57;;
5137;SDS011;53959;53.626;11.410;2022-12-11T08:41:38;18.20;;;10.47;;
5137;SDS011;53959;53.626;11.410;2022-12-11T08:44:03;17.20;;;9.27;;
5137;SDS011;53959;53.626;11.410;2022-12-11T08:46:30;22.70;;;10.23;;
5137;SDS011;53959;53.626;11.410;2022-12-11T08:48:56;17.70;;;9.37;;
5137;SDS011;53959;53.626;11.410;2022-12-11T08:51:23;23.77;;;10.60;;
5137;SDS011;53959;53.626;11.410;2022-12-11T08:53:50;15.60;;;9.03;;
5137;SDS011;53959;53.626;11.410;2022-12-11T08:56:19;22.60;;;10.23;;
5137;SDS011;53959;53.626;11.410;2022-12-11T08:58:46;18.20;;;9.60;;
5137;SDS011;53959;53.626;11.410;2022-12-11T09:01:12;16.47;;;9.03;;
5137;SDS011;53959;53.626;11.410;2022-12-11T09:03:42;17.00;;;9.10;;
5137;SDS011;53959;53.626;11.410;2022-12-11T09:06:09;19.47;;;9.33;;
5137;SDS011;53959;53.626;11.410;2022-12-11T09:08:36;21.43;;;10.53;;
5137;SDS011;53959;53.626;11.410;2022-12-11T09:11:03;18.97;;;9.67;;
5137;SDS011;53959;53.626;11.410;2022-12-11T09:13:30;19.67;;;9.37;;
5137;SDS011;53959;53.626;11.410;2022-12-11T09:15:56;26.73;;;11.10;;
5137;SDS011;53959;53.626;11.410;2022-12-11T09:18:21;16.20;;;9.50;;
5137;SDS011;53959;53.626;11.410;2022-12-11T09:20:47;16.87;;;9.30;;
5137;SDS011;53959;53.626;11.410;2022-12-11T09:23:12;20.00;;;10.40;;
5137;SDS011;53959;53.626;11.410;2022-12-11T09:25:40;18.47;;;10.07;;
5137;SDS011;53959;53.626;11.410;2022-12-11T09:28:06;23.10;;;11.07;;
5137;SDS011;53959;53.626;11.410;2022-12-11T09:30:31;20.33;;;9.73;;
5137;SDS011;53959;53.626;11.410;2022-12-11T09:32:57;21.03;;;9.70;;
5137;SDS011;53959;53.626;11.410;2022-12-11T09:35:23;24.97;;;11.50;;
5137;SDS011;53959;53.626;11.410;2022-12-11T09:37:48;17.57;;;9.90;;
5137;SDS011;53959;53.626;11.410;2022-12-11T09:40:14;15.57;;;8.83;;
5137;SDS011;53959;53.626;11.410;2022-12-11T09:42:45;22.97;;;10.17;;
5137;SDS011;53959;53.626;11.410;2022-12-11T09:45:12;18.27;;;9.97;;
5137;SDS011;53959;53.626;11.410;2022-12-11T09:47:40;16.30;;;9.00;;
5137;SDS011;53959;53.626;11.410;2022-12-11T09:55:15;21.97;;;11.40;;
5137;SDS011;53959;53.626;11.410;2022-12-11T10:03:12;22.13;;;10.70;;
5137;SDS011;53959;53.626;11.410;2022-12-11T10:05:46;16.27;;;9.50;;
5137;SDS011;53959;53.626;11.410;2022-12-11T10:16:17;28.50;;;11.90;;
5137;SDS011;53959;53.626;11.410;2022-12-11T10:18:44;22.37;;;11.10;;
5137;SDS011;53959;53.626;11.410;2022-12-11T10:21:11;23.67;;;12.20;;
5137;SDS011;53959;53.626;11.410;2022-12-11T10:23:45;21.43;;;10.93;;
5137;SDS011;53959;53.626;11.410;2022-12-11T10:26:17;16.90;;;10.03;;
5137;SDS011;53959;53.626;11.410;2022-12-11T10:28:45;19.33;;;11.30;;
5137;SDS011;53959;53.626;11.410;2022-12-11T10:34:02;28.80;;;11.90;;
5137;SDS011;53959;53.626;11.410;2022-12-11T10:36:33;18.73;;;9.60;;
5137;SDS011;53959;53.626;11.410;2022-12-11T10:39:01;21.30;;;9.70;;
5137;SDS011;53959;53.626;11.410;2022-12-11T10:41:37;20.43;;;10.27;;
5137;SDS011;53959;53.626;11.410;2022-12-11T10:44:26;19.13;;;9.87;;
5137;SDS011;53959;53.626;11.410;2022-12-11T10:47:02;17.63;;;10.00;;
5137;SDS011;53959;53.626;11.410;2022-12-11T10:49:34;17.93;;;10.57;;
5137;SDS011;53959;53.626;11.410;2022-12-11T10:52:09;19.70;;;10.20;;
5137;SDS011;53959;53.626;11.410;2022-12-11T10:54:37;19.40;;;9.80;;
5137;SDS011;53959;53.626;11.410;2022-12-11T10:57:08;21.50;;;10.37;;
5137;SDS011;53959;53.626;11.410;2022-12-11T10:59:38;17.63;;;9.63;;
5137;SDS011;53959;53.626;11.410;2022-12-11T11:05:15;20.23;;;9.63;;
5137;SDS011;53959;53.626;11.410;2022-12-11T11:08:01;22.83;;;11.63;;
5137;SDS011;53959;53.626;11.410;2022-12-11T11:10:56;18.40;;;9.77;;
5137;SDS011;53959;53.626;11.410;2022-12-11T11:13:24;19.40;;;9.37;;
5137;SDS011;53959;53.626;11.410;2022-12-11T11:16:02;22.67;;;10.63;;
5137;SDS011;53959;53.626;11.410;2022-12-11T11:18:30;26.53;;;12.30;;
5137;SDS011;53959;53.626;11.410;2022-12-11T11:20:57;19.37;;;10.70;;
5137;SDS011;53959;53.626;11.410;2022-12-11T11:23:23;18.87;;;10.10;;
5137;SDS011;53959;53.626;11.410;2022-12-11T11:25:51;21.53;;;11.27;;
5137;SDS011;53959;53.626;11.410;2022-12-11T11:28:20;20.50;;;10.80;;
5137;SDS011;53959;53.626;11.410;2022-12-11T11:31:04;18.80;;;9.97;;
5137;SDS011;53959;53.626;11.410;2022-12-11T11:33:33;20.97;;;9.60;;
5137;SDS011;53959;53.626;11.410;2022-12-11T11:36:01;24.27;;;10.73;;
5137;SDS011;53959;53.626;11.410;2022-12-11T11:38:36;21.57;;;10.73;;
5137;SDS011;53959;53.626;11.410;2022-12-11T11:41:19;16.87;;;9.87;;
5137;SDS011;53959;53.626;11.410;2022-12-11T11:44:01;23.73;;;10.57;;
5137;SDS011;53959;53.626;11.410;2022-12-11T11:51:56;20.80;;;11.00;;
5137;SDS011;53959;53.626;11.410;2022-12-11T12:00:43;21.43;;;10.63;;
5137;SDS011;53959;53.626;11.410;2022-12-11T12:03:09;25.83;;;13.00;;
5137;SDS011;53959;53.626;11.410;2022-12-11T12:05:41;20.00;;;11.30;;
5137;SDS011;53959;53.626;11.410;2022-12-11T12:10:50;21.20;;;11.20;;
5137;SDS011;53959;53.626;11.410;2022-12-11T12:16:11;20.17;;;10.00;;
5137;SDS011;53959;53.626;11.410;2022-12-11T12:21:34;19.63;;;11.23;;
5137;SDS011;53959;53.626;11.410;2022-12-11T12:24:19;21.97;;;11.50;;
5137;SDS011;53959;53.626;11.410;2022-12-11T12:26:50;29.07;;;12.93;;
5137;SDS011;53959;53.626;11.410;2022-12-11T12:32:19;25.87;;;10.30;;
5137;SDS011;53959;53.626;11.410;2022-12-11T12:35:08;25.10;;;11.10;;
5137;SDS011;53959;53.626;11.410;2022-12-11T12:38:14;23.77;;;11.10;;
5137;SDS011;53959;53.626;11.410;2022-12-11T12:41:19;23.57;;;11.80;;
5137;SDS011;53959;53.626;11.410;2022-12-11T12:44:06;23.87;;;11.70;;
5137;SDS011;53959;53.626;11.410;2022-12-11T12:47:00;27.83;;;11.40;;
5137;SDS011;53959;53.626;11.410;2022-12-11T12:49:42;26.10;;;12.00;;
5137;SDS011;53959;53.626;11.410;2022-12-11T12:52:32;21.70;;;11.47;;
5137;SDS011;53959;53.626;11.410;2022-12-11T12:54:58;24.90;;;12.57;;
5137;SDS011;53959;53.626;11.410;2022-12-11T12:57:46;22.60;;;11.67;;
5137;SDS011;53959;53.626;11.410;2022-12-11T13:00:27;24.20;;;11.57;;
5137;SDS011;53959;53.626;11.410;2022-12-11T13:03:12;28.33;;;12.00;;
5137;SDS011;53959;53.626;11.410;2022-12-11T13:05:52;22.20;;;12.20;;
5137;SDS011;53959;53.626;11.410;2022-12-11T13:08:24;34.13;;;15.67;;
5137;SDS011;53959;53.626;11.410;2022-12-11T13:10:57;24.40;;;13.43;;
5137;SDS011;53959;53.626;11.410;2022-12-11T13:13:45;34.23;;;15.10;;
5137;SDS011;53959;53.626;11.410;2022-12-11T13:18:40;36.17;;;15.37;;
5137;SDS011;53959;53.626;11.410;2022-12-11T13:23:50;27.20;;;13.10;;
5137;SDS011;53959;53.626;11.410;2022-12-11T13:26:27;33.13;;;14.70;;
5137;SDS011;53959;53.626;11.410;2022-12-11T13:28:54;30.00;;;13.07;;
5137;SDS011;53959;53.626;11.410;2022-12-11T13:33:51;37.13;;;14.97;;
5137;SDS011;53959;53.626;11.410;2022-12-11T13:36:26;20.20;;;11.23;;
5137;SDS011;53959;53.626;11.410;2022-12-11T13:38:57;28.00;;;13.53;;
5137;SDS011;53959;53.626;11.410;2022-12-11T13:41:26;31.83;;;14.90;;
5137;SDS011;53959;53.626;11.410;2022-12-11T13:43:52;38.97;;;17.63;;
5137;SDS011;53959;53.626;11.410;2022-12-11T13:46:21;33.10;;;14.73;;
5137;SDS011;53959;53.626;11.410;2022-12-11T13:48:51;36.50;;;15.90;;
5137;SDS011;53959;53.626;11.410;2022-12-11T13:51:22;34.00;;;15.80;;
5137;SDS011;53959;53.626;11.410;2022-12-11T13:54:00;33.20;;;16.50;;
5137;SDS011;53959;53.626;11.410;2022-12-11T13:56:27;29.33;;;13.47;;
5137;SDS011;53959;53.626;11.410;2022-12-11T13:58:53;35.83;;;15.63;;
5137;SDS011;53959;53.626;11.410;2022-12-11T14:01:22;29.33;;;14.63;;
5137;SDS011;53959;53.626;11.410;2022-12-11T14:04:02;37.40;;;16.10;;
5137;SDS011;53959;53.626;11.410;2022-12-11T14:06:33;35.40;;;13.80;;
5137;SDS011;53959;53.626;11.410;2022-12-11T14:09:00;49.20;;;18.23;;
5137;SDS011;53959;53.626;11.410;2022-12-11T14:11:30;35.93;;;15.17;;
5137;SDS011;53959;53.626;11.410;2022-12-11T14:14:00;33.47;;;14.57;;
5137;SDS011;53959;53.626;11.410;2022-12-11T14:16:30;26.57;;;12.20;;
5137;SDS011;53959;53.626;11.410;2022-12-11T14:18:59;30.00;;;14.53;;
5137;SDS011;53959;53.626;11.410;2022-12-11T14:21:29;40.80;;;17.67;;
5137;SDS011;53959;53.626;11.410;2022-12-11T14:23:55;29.23;;;15.10;;
5137;SDS011;53959;53.626;11.410;2022-12-11T14:26:24;37.83;;;15.97;;
5137;SDS011;53959;53.626;11.410;2022-12-11T14:28:51;39.97;;;17.47;;
5137;SDS011;53959;53.626;11.410;2022-12-11T14:31:20;26.10;;;13.33;;
5137;SDS011;53959;53.626;11.410;2022-12-11T14:33:49;23.40;;;12.00;;
5137;SDS011;53959;53.626;11.410;2022-12-11T14:36:17;35.90;;;16.93;;
5137;SDS011;53959;53.626;11.410;2022-12-11T14:39:06;36.87;;;15.93;;
5137;SDS011;53959;53.626;11.410;2022-12-11T14:41:53;29.20;;;13.07;;
5137;SDS011;53959;53.626;11.410;2022-12-11T14:44:23;29.70;;;13.87;;
5137;SDS011;53959;53.626;11.410;2022-12-11T14:46:55;27.10;;;14.30;;
5137;SDS011;53959;53.626;11.410;2022-12-11T14:51:52;26.00;;;12.07;;
5137;SDS011;53959;53.626;11.410;2022-12-11T14:54:37;22.83;;;12.37;;
5137;SDS011;53959;53.626;11.410;2022-12-11T14:57:06;29.77;;;13.43;;
5137;SDS011;53959;53.626;11.410;2022-12-11T14:59:40;30.40;;;14.40;;
5137;SDS011;53959;53.626;11.410;2022-12-11T15:02:26;27.63;;;14.10;;
5137;SDS011;53959;53.626;11.410;2022-12-11T15:07:53;26.07;;;13.27;;
5137;SDS011;53959;53.626;11.410;2022-12-11T15:13:02;27.23;;;13.67;;
5137;SDS011;53959;53.626;11.410;2022-12-11T15:15:30;31.77;;;14.70;;
5137;SDS011;53959;53.626;11.410;2022-12-11T15:18:01;36.73;;;17.87;;
5137;SDS011;53959;53.626;11.410;2022-12-11T15:20:31;30.97;;;16.00;;
5137;SDS011;53959;53.626;11.410;2022-12-11T15:22:56;30.17;;;15.10;;
5137;SDS011;53959;53.626;11.410;2022-12-11T15:25:26;29.00;;;14.80;;
5137;SDS011;53959;53.626;11.410;2022-12-11T15:27:54;26.60;;;14.20;;
5137;SDS011;53959;53.626;11.410;2022-12-11T15:33:03;36.10;;;14.10;;
5137;SDS011;53959;53.626;11.410;2022-12-11T15:35:51;28.77;;;12.73;;
5137;SDS011;53959;53.626;11.410;2022-12-11T15:38:26;28.93;;;12.93;;
5137;SDS011;53959;53.626;11.410;2022-12-11T15:41:04;29.70;;;13.57;;
5137;SDS011;53959;53.626;11.410;2022-12-11T15:43:33;24.43;;;13.77;;
5137;SDS011;53959;53.626;11.410;2022-12-11T15:46:01;27.53;;;13.47;;
5137;SDS011;53959;53.626;11.410;2022-12-11T15:48:28;28.90;;;12.97;;
5137;SDS011;53959;53.626;11.410;2022-12-11T15:50:54;26.97;;;12.80;;
5137;SDS011;53959;53.626;11.410;2022-12-11T15:53:19;26.40;;;13.43;;
5137;SDS011;53959;53.626;11.410;2022-12-11T15:55:45;29.77;;;14.20;;
5137;SDS011;53959;53.626;11.410;2022-12-11T15:58:13;27.20;;;13.57;;
5137;SDS011;53959;53.626;11.410;2022-12-11T16:00:42;25.70;;;13.80;;
5137;SDS011;53959;53.626;11.410;2022-12-11T16:03:10;24.77;;;12.30;;
5137;SDS011;53959;53.626;11.410;2022-12-11T16:05:40;27.00;;;13.03;;
5137;SDS011;53959;53.626;11.410;2022-12-11T16:08:06;25.23;;;13.27;;
5137;SDS011;53959;53.626;11.410;2022-12-11T16:10:33;25.17;;;12.67;;
5137;SDS011;53959;53.626;11.410;2022-12-11T16:12:59;24.80;;;12.20;;